sensor_id;sensor_type;location;lat;lon;timestamp;pressure;altitude;pressure_sealevel;temperature;humidity
36898;BME280;22827;53.108;-6.738;2023-08-06T00:00:39;100634.07;;;10.91;47.97
36898;BME280;22827;53.108;-6.738;2023-08-06T00:03:07;100638.19;;;10.91;47.82
36898;BME280;22827;53.108;-6.738;2023-08-06T00:05:34;100640.06;;;10.91;47.98
36898;BME280;22827;53.108;-6.738;2023-08-06T00:08:01;100646.73;;;9.97;49.44
36898;BME280;22827;53.108;-6.738;2023-08-06T00:10:27;100647.46;;;9.95;51.17
36898;BME280;22827;53.108;-6.738;2023-08-06T00:12:54;100649.21;;;9.10;52.82
36898;BME280;22827;53.108;-6.738;2023-08-06T00:15:22;100651.51;;;9.20;53.70
36898;BME280;22827;53.108;-6.738;2023-08-06T00:17:49;100649.85;;;9.17;52.99
36898;BME280;22827;53.108;-6.738;2023-08-06T00:20:16;100647.15;;;10.00;52.47
36898;BME280;22827;53.108;-6.738;2023-08-06T00:22:42;100645.09;;;9.90;52.53
36898;BME280;22827;53.108;-6.738;2023-08-06T00:25:09;100649.37;;;9.41;53.82
36898;BME280;22827;53.108;-6.738;2023-08-06T00:27:36;100651.08;;;9.45;54.14
36898;BME280;22827;53.108;-6.738;2023-08-06T00:30:04;100651.05;;;9.16;54.79
36898;BME280;22827;53.108;-6.738;2023-08-06T00:32:31;100654.86;;;8.55;54.86
36898;BME280;22827;53.108;-6.738;2023-08-06T00:34:58;100650.22;;;9.68;53.10
36898;BME280;22827;53.108;-6.738;2023-08-06T00:37:25;100649.19;;;9.49;54.24
36898;BME280;22827;53.108;-6.738;2023-08-06T00:39:51;100653.11;;;9.54;54.63
36898;BME280;22827;53.108;-6.738;2023-08-06T00:42:18;100651.26;;;9.58;54.66
36898;BME280;22827;53.108;-6.738;2023-08-06T00:44:45;100653.17;;;9.44;54.60
36898;BME280;22827;53.108;-6.738;2023-08-06T00:47:12;100655.83;;;8.86;54.63
36898;BME280;22827;53.108;-6.738;2023-08-06T00:49:40;100656.36;;;8.88;55.09
36898;BME280;22827;53.108;-6.738;2023-08-06T00:52:08;100656.22;;;8.64;56.09
36898;BME280;22827;53.108;-6.738;2023-08-06T00:54:36;100646.85;;;9.30;54.95
36898;BME280;22827;53.108;-6.738;2023-08-06T00:57:04;100645.70;;;9.22;53.57
36898;BME280;22827;53.108;-6.738;2023-08-06T00:59:32;100643.55;;;9.38;53.85
36898;BME280;22827;53.108;-6.738;2023-08-06T01:01:59;100641.68;;;9.87;51.83
36898;BME280;22827;53.108;-6.738;2023-08-06T01:04:26;100642.30;;;10.11;51.13
36898;BME280;22827;53.108;-6.738;2023-08-06T01:07:02;100641.46;;;9.43;51.49
36898;BME280;22827;53.108;-6.738;2023-08-06T01:09:37;100647.01;;;9.36;50.83
36898;BME280;22827;53.108;-6.738;2023-08-06T01:12:17;100648.77;;;9.21;50.94
36898;BME280;22827;53.108;-6.738;2023-08-06T01:14:50;100650.12;;;9.71;50.76
36898;BME280;22827;53.108;-6.738;2023-08-06T01:17:20;100648.89;;;10.31;50.37
36898;BME280;22827;53.108;-6.738;2023-08-06T01:19:48;100652.34;;;9.22;50.56
36898;BME280;22827;53.108;-6.738;2023-08-06T01:22:14;100648.84;;;9.52;50.39
36898;BME280;22827;53.108;-6.738;2023-08-06T01:24:45;100646.66;;;9.14;50.25
36898;BME280;22827;53.108;-6.738;2023-08-06T01:27:21;100644.49;;;9.07;50.10
36898;BME280;22827;53.108;-6.738;2023-08-06T01:29:56;100637.90;;;8.77;50.49
36898;BME280;22827;53.108;-6.738;2023-08-06T01:32:26;100639.40;;;8.61;50.14
36898;BME280;22827;53.108;-6.738;2023-08-06T01:34:56;100642.32;;;8.59;50.48
36898;BME280;22827;53.108;-6.738;2023-08-06T01:37:27;100648.29;;;8.38;50.93
36898;BME280;22827;53.108;-6.738;2023-08-06T01:39:55;100642.19;;;9.08;50.71
36898;BME280;22827;53.108;-6.738;2023-08-06T01:42:22;100647.82;;;9.48;48.80
36898;BME280;22827;53.108;-6.738;2023-08-06T01:44:49;100652.05;;;9.72;49.34
36898;BME280;22827;53.108;-6.738;2023-08-06T01:47:16;100655.96;;;9.23;49.95
36898;BME280;22827;53.108;-6.738;2023-08-06T01:49:43;100657.14;;;8.84;50.20
36898;BME280;22827;53.108;-6.738;2023-08-06T01:52:10;100661.34;;;8.92;50.49
36898;BME280;22827;53.108;-6.738;2023-08-06T01:54:38;100660.76;;;8.95;49.89
36898;BME280;22827;53.108;-6.738;2023-08-06T01:57:05;100662.12;;;8.72;49.93
36898;BME280;22827;53.108;-6.738;2023-08-06T01:59:32;100662.90;;;8.85;49.68
36898;BME280;22827;53.108;-6.738;2023-08-06T02:02:00;100665.84;;;8.59;49.87
36898;BME280;22827;53.108;-6.738;2023-08-06T02:04:27;100669.94;;;8.39;50.01
36898;BME280;22827;53.108;-6.738;2023-08-06T02:06:53;100673.77;;;8.18;49.63
36898;BME280;22827;53.108;-6.738;2023-08-06T02:09:21;100676.44;;;8.55;49.91
36898;BME280;22827;53.108;-6.738;2023-08-06T02:11:47;100675.20;;;8.91;49.41
36898;BME280;22827;53.108;-6.738;2023-08-06T02:14:14;100681.08;;;7.35;51.07
36898;BME280;22827;53.108;-6.738;2023-08-06T02:16:41;100680.84;;;8.72;49.91
36898;BME280;22827;53.108;-6.738;2023-08-06T02:19:08;100677.75;;;9.19;48.99
36898;BME280;22827;53.108;-6.738;2023-08-06T02:21:35;100681.70;;;8.35;50.21
36898;BME280;22827;53.108;-6.738;2023-08-06T02:24:02;100679.49;;;9.49;48.20
36898;BME280;22827;53.108;-6.738;2023-08-06T02:26:30;100691.55;;;8.17;49.55
36898;BME280;22827;53.108;-6.738;2023-08-06T02:28:56;100694.53;;;7.75;50.83
36898;BME280;22827;53.108;-6.738;2023-08-06T02:31:23;100691.76;;;7.91;50.19
36898;BME280;22827;53.108;-6.738;2023-08-06T02:33:50;100693.39;;;8.57;49.69
36898;BME280;22827;53.108;-6.738;2023-08-06T02:36:17;100691.53;;;7.91;50.49
36898;BME280;22827;53.108;-6.738;2023-08-06T02:38:44;100694.06;;;7.64;50.70
36898;BME280;22827;53.108;-6.738;2023-08-06T02:41:11;100689.93;;;7.53;50.60
36898;BME280;22827;53.108;-6.738;2023-08-06T02:43:38;100689.84;;;7.69;50.30
36898;BME280;22827;53.108;-6.738;2023-08-06T02:46:05;100690.48;;;6.56;51.27
36898;BME280;22827;53.108;-6.738;2023-08-06T02:48:32;100690.54;;;7.14;51.77
36898;BME280;22827;53.108;-6.738;2023-08-06T02:50:59;100688.76;;;7.17;51.82
36898;BME280;22827;53.108;-6.738;2023-08-06T02:53:26;100691.62;;;7.12;52.04
36898;BME280;22827;53.108;-6.738;2023-08-06T02:55:53;100688.85;;;7.34;52.44
36898;BME280;22827;53.108;-6.738;2023-08-06T02:58:21;100688.33;;;8.94;50.01
36898;BME280;22827;53.108;-6.738;2023-08-06T03:00:59;100688.60;;;9.04;49.65
36898;BME280;22827;53.108;-6.738;2023-08-06T03:03:27;100687.50;;;7.97;50.99
36898;BME280;22827;53.108;-6.738;2023-08-06T03:05:54;100685.30;;;7.28;51.78
36898;BME280;22827;53.108;-6.738;2023-08-06T03:08:21;100681.67;;;6.70;52.92
36898;BME280;22827;53.108;-6.738;2023-08-06T03:10:48;100686.07;;;8.19;50.72
36898;BME280;22827;53.108;-6.738;2023-08-06T03:13:15;100683.10;;;7.08;51.47
36898;BME280;22827;53.108;-6.738;2023-08-06T03:15:41;100683.86;;;6.94;52.87
36898;BME280;22827;53.108;-6.738;2023-08-06T03:18:09;100687.92;;;6.33;53.16
36898;BME280;22827;53.108;-6.738;2023-08-06T03:20:36;100685.84;;;7.21;52.00
36898;BME280;22827;53.108;-6.738;2023-08-06T03:23:03;100691.31;;;7.22;51.99
36898;BME280;22827;53.108;-6.738;2023-08-06T03:25:30;100692.49;;;7.57;51.30
36898;BME280;22827;53.108;-6.738;2023-08-06T03:27:57;100692.57;;;7.67;50.95
36898;BME280;22827;53.108;-6.738;2023-08-06T03:30:24;100690.83;;;7.61;50.80
36898;BME280;22827;53.108;-6.738;2023-08-06T03:32:50;100690.18;;;6.84;51.48
36898;BME280;22827;53.108;-6.738;2023-08-06T03:35:17;100689.35;;;7.49;51.31
36898;BME280;22827;53.108;-6.738;2023-08-06T03:37:44;100688.18;;;7.01;51.96
36898;BME280;22827;53.108;-6.738;2023-08-06T03:40:11;100686.52;;;7.56;51.14
36898;BME280;22827;53.108;-6.738;2023-08-06T03:42:38;100685.73;;;7.53;51.27
36898;BME280;22827;53.108;-6.738;2023-08-06T03:45:07;100687.79;;;8.38;50.10
36898;BME280;22827;53.108;-6.738;2023-08-06T03:47:34;100687.17;;;8.17;51.38
36898;BME280;22827;53.108;-6.738;2023-08-06T03:50:01;100688.17;;;7.38;51.52
36898;BME280;22827;53.108;-6.738;2023-08-06T03:52:29;100687.54;;;7.74;51.67
36898;BME280;22827;53.108;-6.738;2023-08-06T03:54:56;100685.45;;;8.15;49.57
36898;BME280;22827;53.108;-6.738;2023-08-06T03:57:23;100683.20;;;8.16;50.83
36898;BME280;22827;53.108;-6.738;2023-08-06T03:59:50;100687.28;;;8.12;51.11
36898;BME280;22827;53.108;-6.738;2023-08-06T04:02:17;100690.86;;;8.08;51.38
36898;BME280;22827;53.108;-6.738;2023-08-06T04:04:44;100690.23;;;8.26;51.15
36898;BME280;22827;53.108;-6.738;2023-08-06T04:07:10;100684.73;;;7.96;50.82
36898;BME280;22827;53.108;-6.738;2023-08-06T04:09:53;100681.71;;;8.78;50.41
36898;BME280;22827;53.108;-6.738;2023-08-06T04:12:21;100675.48;;;9.15;48.21
36898;BME280;22827;53.108;-6.738;2023-08-06T04:14:49;100682.18;;;8.16;50.42
36898;BME280;22827;53.108;-6.738;2023-08-06T04:17:16;100684.82;;;8.10;51.04
36898;BME280;22827;53.108;-6.738;2023-08-06T04:19:43;100688.06;;;8.30;51.36
36898;BME280;22827;53.108;-6.738;2023-08-06T04:22:10;100686.36;;;7.87;51.62
36898;BME280;22827;53.108;-6.738;2023-08-06T04:24:37;100684.85;;;8.17;52.24
36898;BME280;22827;53.108;-6.738;2023-08-06T04:27:04;100684.00;;;8.52;51.46
36898;BME280;22827;53.108;-6.738;2023-08-06T04:29:31;100682.91;;;8.20;51.82
36898;BME280;22827;53.108;-6.738;2023-08-06T04:31:58;100685.32;;;7.89;51.76
36898;BME280;22827;53.108;-6.738;2023-08-06T04:34:25;100684.13;;;8.40;51.54
36898;BME280;22827;53.108;-6.738;2023-08-06T04:36:52;100681.69;;;8.64;51.36
36898;BME280;22827;53.108;-6.738;2023-08-06T04:39:19;100677.41;;;8.65;50.87
36898;BME280;22827;53.108;-6.738;2023-08-06T04:41:46;100678.95;;;8.65;50.93
36898;BME280;22827;53.108;-6.738;2023-08-06T04:44:12;100683.22;;;8.13;52.00
36898;BME280;22827;53.108;-6.738;2023-08-06T04:46:39;100686.76;;;8.59;51.93
36898;BME280;22827;53.108;-6.738;2023-08-06T04:49:06;100687.65;;;8.42;51.98
36898;BME280;22827;53.108;-6.738;2023-08-06T04:51:33;100683.45;;;9.07;51.84
36898;BME280;22827;53.108;-6.738;2023-08-06T04:54:00;100684.70;;;8.79;51.34
36898;BME280;22827;53.108;-6.738;2023-08-06T04:56:27;100686.07;;;8.79;51.41
36898;BME280;22827;53.108;-6.738;2023-08-06T04:58:54;100687.59;;;9.35;51.19
36898;BME280;22827;53.108;-6.738;2023-08-06T05:01:21;100688.90;;;8.76;51.37
36898;BME280;22827;53.108;-6.738;2023-08-06T05:03:48;100693.52;;;8.54;52.20
36898;BME280;22827;53.108;-6.738;2023-08-06T05:06:14;100697.87;;;9.32;52.14
36898;BME280;22827;53.108;-6.738;2023-08-06T05:08:41;100699.58;;;9.45;51.27
36898;BME280;22827;53.108;-6.738;2023-08-06T05:11:09;100700.36;;;9.22;51.68
36898;BME280;22827;53.108;-6.738;2023-08-06T05:13:36;100701.37;;;9.35;51.26
36898;BME280;22827;53.108;-6.738;2023-08-06T05:16:03;100702.00;;;9.78;50.48
36898;BME280;22827;53.108;-6.738;2023-08-06T05:18:31;100704.27;;;9.85;50.30
36898;BME280;22827;53.108;-6.738;2023-08-06T05:20:57;100702.15;;;10.12;50.06
36898;BME280;22827;53.108;-6.738;2023-08-06T05:23:24;100706.32;;;10.37;49.31
36898;BME280;22827;53.108;-6.738;2023-08-06T05:25:51;100707.35;;;11.24;48.24
36898;BME280;22827;53.108;-6.738;2023-08-06T05:28:18;100711.71;;;10.73;48.92
36898;BME280;22827;53.108;-6.738;2023-08-06T05:30:45;100715.50;;;9.94;50.57
36898;BME280;22827;53.108;-6.738;2023-08-06T05:33:12;100717.65;;;9.97;50.98
36898;BME280;22827;53.108;-6.738;2023-08-06T05:35:40;100723.17;;;10.08;51.28
36898;BME280;22827;53.108;-6.738;2023-08-06T05:38:07;100723.92;;;9.85;51.36
36898;BME280;22827;53.108;-6.738;2023-08-06T05:40:34;100721.82;;;10.18;51.00
36898;BME280;22827;53.108;-6.738;2023-08-06T05:43:01;100721.18;;;11.28;49.07
36898;BME280;22827;53.108;-6.738;2023-08-06T05:45:28;100722.52;;;10.99;49.27
36898;BME280;22827;53.108;-6.738;2023-08-06T05:47:55;100723.87;;;11.24;48.98
36898;BME280;22827;53.108;-6.738;2023-08-06T05:50:22;100731.46;;;10.88;49.24
36898;BME280;22827;53.108;-6.738;2023-08-06T05:52:48;100729.27;;;10.58;50.18
36898;BME280;22827;53.108;-6.738;2023-08-06T05:55:15;100735.84;;;9.95;50.66
36898;BME280;22827;53.108;-6.738;2023-08-06T05:57:42;100732.66;;;10.55;50.28
36898;BME280;22827;53.108;-6.738;2023-08-06T06:00:10;100734.85;;;10.50;50.29
36898;BME280;22827;53.108;-6.738;2023-08-06T06:02:38;100734.24;;;10.49;50.60
36898;BME280;22827;53.108;-6.738;2023-08-06T06:05:05;100736.83;;;10.81;50.21
36898;BME280;22827;53.108;-6.738;2023-08-06T06:07:32;100735.27;;;10.99;50.31
36898;BME280;22827;53.108;-6.738;2023-08-06T06:09:59;100735.27;;;10.33;50.94
36898;BME280;22827;53.108;-6.738;2023-08-06T06:12:26;100736.26;;;11.13;49.44
36898;BME280;22827;53.108;-6.738;2023-08-06T06:14:53;100730.61;;;11.68;49.36
36898;BME280;22827;53.108;-6.738;2023-08-06T06:17:20;100735.95;;;10.85;49.99
36898;BME280;22827;53.108;-6.738;2023-08-06T06:19:47;100741.48;;;11.43;49.60
36898;BME280;22827;53.108;-6.738;2023-08-06T06:22:14;100743.17;;;10.59;50.28
36898;BME280;22827;53.108;-6.738;2023-08-06T06:24:42;100744.42;;;10.85;51.04
36898;BME280;22827;53.108;-6.738;2023-08-06T06:27:09;100745.98;;;11.11;50.68
36898;BME280;22827;53.108;-6.738;2023-08-06T06:29:36;100743.53;;;11.10;49.93
36898;BME280;22827;53.108;-6.738;2023-08-06T06:32:03;100745.79;;;11.52;49.41
36898;BME280;22827;53.108;-6.738;2023-08-06T06:34:30;100750.19;;;11.30;49.61
36898;BME280;22827;53.108;-6.738;2023-08-06T06:36:57;100748.60;;;12.11;48.41
36898;BME280;22827;53.108;-6.738;2023-08-06T06:39:24;100750.77;;;11.90;48.06
36898;BME280;22827;53.108;-6.738;2023-08-06T06:41:51;100752.65;;;11.52;48.50
36898;BME280;22827;53.108;-6.738;2023-08-06T06:44:18;100755.90;;;11.77;48.48
36898;BME280;22827;53.108;-6.738;2023-08-06T06:46:45;100754.63;;;11.74;49.20
36898;BME280;22827;53.108;-6.738;2023-08-06T06:49:12;100753.92;;;11.72;49.96
36898;BME280;22827;53.108;-6.738;2023-08-06T06:51:38;100752.19;;;12.06;48.60
36898;BME280;22827;53.108;-6.738;2023-08-06T06:54:05;100750.99;;;11.62;48.61
36898;BME280;22827;53.108;-6.738;2023-08-06T06:56:32;100753.04;;;12.58;47.67
36898;BME280;22827;53.108;-6.738;2023-08-06T06:58:59;100750.14;;;12.80;47.32
36898;BME280;22827;53.108;-6.738;2023-08-06T07:01:26;100752.71;;;12.28;48.27
36898;BME280;22827;53.108;-6.738;2023-08-06T07:03:53;100749.38;;;12.11;48.17
36898;BME280;22827;53.108;-6.738;2023-08-06T07:06:19;100751.27;;;12.35;47.30
36898;BME280;22827;53.108;-6.738;2023-08-06T07:08:46;100751.43;;;11.95;48.54
36898;BME280;22827;53.108;-6.738;2023-08-06T07:11:13;100752.36;;;11.98;49.14
36898;BME280;22827;53.108;-6.738;2023-08-06T07:13:40;100756.40;;;12.24;49.18
36898;BME280;22827;53.108;-6.738;2023-08-06T07:16:07;100758.46;;;12.79;48.72
36898;BME280;22827;53.108;-6.738;2023-08-06T07:18:35;100757.39;;;12.64;48.62
36898;BME280;22827;53.108;-6.738;2023-08-06T07:21:01;100757.78;;;12.59;49.18
36898;BME280;22827;53.108;-6.738;2023-08-06T07:23:28;100757.01;;;12.61;48.83
36898;BME280;22827;53.108;-6.738;2023-08-06T07:25:55;100753.58;;;12.67;49.18
36898;BME280;22827;53.108;-6.738;2023-08-06T07:28:22;100757.35;;;12.73;48.80
36898;BME280;22827;53.108;-6.738;2023-08-06T07:30:49;100755.84;;;13.16;48.81
36898;BME280;22827;53.108;-6.738;2023-08-06T07:33:15;100754.15;;;11.11;51.32
36898;BME280;22827;53.108;-6.738;2023-08-06T07:35:42;100750.68;;;12.23;50.77
36898;BME280;22827;53.108;-6.738;2023-08-06T07:38:09;100753.39;;;12.82;50.25
36898;BME280;22827;53.108;-6.738;2023-08-06T07:40:36;100751.29;;;12.57;50.55
36898;BME280;22827;53.108;-6.738;2023-08-06T07:43:04;100751.11;;;10.90;52.31
36898;BME280;22827;53.108;-6.738;2023-08-06T07:45:33;100745.04;;;12.39;52.81
36898;BME280;22827;53.108;-6.738;2023-08-06T07:48:00;100748.06;;;13.38;52.53
36898;BME280;22827;53.108;-6.738;2023-08-06T07:50:27;100747.84;;;13.19;51.02
36898;BME280;22827;53.108;-6.738;2023-08-06T07:52:53;100746.84;;;12.53;53.12
36898;BME280;22827;53.108;-6.738;2023-08-06T07:55:21;100754.59;;;11.27;54.46
36898;BME280;22827;53.108;-6.738;2023-08-06T07:57:48;100752.61;;;12.25;55.02
36898;BME280;22827;53.108;-6.738;2023-08-06T08:00:15;100751.99;;;11.61;54.17
36898;BME280;22827;53.108;-6.738;2023-08-06T08:02:42;100749.47;;;11.79;53.89
36898;BME280;22827;53.108;-6.738;2023-08-06T08:05:09;100750.42;;;11.62;56.79
36898;BME280;22827;53.108;-6.738;2023-08-06T08:07:36;100749.48;;;11.22;56.20
36898;BME280;22827;53.108;-6.738;2023-08-06T08:10:03;100751.95;;;11.19;57.19
36898;BME280;22827;53.108;-6.738;2023-08-06T08:12:30;100754.82;;;11.31;57.15
36898;BME280;22827;53.108;-6.738;2023-08-06T08:14:57;100753.93;;;11.58;56.26
36898;BME280;22827;53.108;-6.738;2023-08-06T08:17:24;100752.68;;;12.05;53.83
36898;BME280;22827;53.108;-6.738;2023-08-06T08:19:50;100753.98;;;12.30;54.21
36898;BME280;22827;53.108;-6.738;2023-08-06T08:22:17;100751.84;;;12.10;55.06
36898;BME280;22827;53.108;-6.738;2023-08-06T08:24:44;100749.03;;;11.70;54.03
36898;BME280;22827;53.108;-6.738;2023-08-06T08:27:11;100752.61;;;11.23;57.13
36898;BME280;22827;53.108;-6.738;2023-08-06T08:29:38;100753.79;;;10.99;58.55
36898;BME280;22827;53.108;-6.738;2023-08-06T08:32:06;100752.58;;;11.05;58.89
36898;BME280;22827;53.108;-6.738;2023-08-06T08:34:33;100751.53;;;10.68;58.04
36898;BME280;22827;53.108;-6.738;2023-08-06T08:37:00;100754.22;;;11.33;56.45
36898;BME280;22827;53.108;-6.738;2023-08-06T08:39:27;100754.00;;;11.17;57.57
36898;BME280;22827;53.108;-6.738;2023-08-06T08:41:53;100753.93;;;11.27;57.44
36898;BME280;22827;53.108;-6.738;2023-08-06T08:44:21;100752.22;;;11.88;55.84
36898;BME280;22827;53.108;-6.738;2023-08-06T08:46:48;100756.80;;;11.69;55.53
36898;BME280;22827;53.108;-6.738;2023-08-06T08:49:16;100754.90;;;10.51;58.15
36898;BME280;22827;53.108;-6.738;2023-08-06T08:51:44;100754.95;;;11.22;59.77
36898;BME280;22827;53.108;-6.738;2023-08-06T08:54:13;100754.81;;;10.70;60.12
36898;BME280;22827;53.108;-6.738;2023-08-06T08:56:41;100756.87;;;10.49;58.69
36898;BME280;22827;53.108;-6.738;2023-08-06T08:59:09;100758.83;;;12.01;56.86
36898;BME280;22827;53.108;-6.738;2023-08-06T09:01:37;100757.55;;;12.15;56.29
36898;BME280;22827;53.108;-6.738;2023-08-06T09:04:07;100759.03;;;11.96;56.28
36898;BME280;22827;53.108;-6.738;2023-08-06T09:06:36;100756.09;;;11.38;56.09
36898;BME280;22827;53.108;-6.738;2023-08-06T09:09:08;100751.94;;;11.68;56.35
36898;BME280;22827;53.108;-6.738;2023-08-06T09:11:39;100757.34;;;12.25;56.25
36898;BME280;22827;53.108;-6.738;2023-08-06T09:14:08;100755.88;;;11.84;57.15
36898;BME280;22827;53.108;-6.738;2023-08-06T09:16:35;100755.26;;;11.30;55.45
36898;BME280;22827;53.108;-6.738;2023-08-06T09:19:07;100758.78;;;11.65;56.59
36898;BME280;22827;53.108;-6.738;2023-08-06T09:21:37;100761.81;;;11.57;57.26
36898;BME280;22827;53.108;-6.738;2023-08-06T09:24:07;100764.11;;;10.33;59.40
36898;BME280;22827;53.108;-6.738;2023-08-06T09:26:35;100763.42;;;10.54;57.86
36898;BME280;22827;53.108;-6.738;2023-08-06T09:29:05;100761.75;;;10.82;57.18
36898;BME280;22827;53.108;-6.738;2023-08-06T09:31:33;100757.86;;;11.01;56.54
36898;BME280;22827;53.108;-6.738;2023-08-06T09:34:00;100756.87;;;12.48;56.57
36898;BME280;22827;53.108;-6.738;2023-08-06T09:36:27;100752.39;;;12.04;55.52
36898;BME280;22827;53.108;-6.738;2023-08-06T09:38:54;100752.40;;;13.91;52.02
36898;BME280;22827;53.108;-6.738;2023-08-06T09:41:26;100749.62;;;12.67;51.73
36898;BME280;22827;53.108;-6.738;2023-08-06T09:43:54;100757.34;;;12.22;54.29
36898;BME280;22827;53.108;-6.738;2023-08-06T09:46:21;100757.45;;;12.10;54.45
36898;BME280;22827;53.108;-6.738;2023-08-06T09:48:50;100764.08;;;11.89;55.95
36898;BME280;22827;53.108;-6.738;2023-08-06T09:51:17;100763.00;;;12.37;55.32
36898;BME280;22827;53.108;-6.738;2023-08-06T09:53:44;100760.86;;;12.36;52.69
36898;BME280;22827;53.108;-6.738;2023-08-06T09:56:13;100760.69;;;12.41;53.82
36898;BME280;22827;53.108;-6.738;2023-08-06T09:58:43;100759.74;;;11.90;53.07
36898;BME280;22827;53.108;-6.738;2023-08-06T10:01:11;100761.77;;;11.96;53.09
36898;BME280;22827;53.108;-6.738;2023-08-06T10:03:49;100767.07;;;13.10;54.82
36898;BME280;22827;53.108;-6.738;2023-08-06T10:06:19;100764.82;;;12.43;52.96
36898;BME280;22827;53.108;-6.738;2023-08-06T10:08:47;100767.29;;;12.05;54.94
36898;BME280;22827;53.108;-6.738;2023-08-06T10:11:15;100771.26;;;11.38;55.81
36898;BME280;22827;53.108;-6.738;2023-08-06T10:13:44;100778.30;;;11.28;56.71
36898;BME280;22827;53.108;-6.738;2023-08-06T10:16:12;100785.25;;;11.86;57.29
36898;BME280;22827;53.108;-6.738;2023-08-06T10:18:39;100787.45;;;11.02;56.65
36898;BME280;22827;53.108;-6.738;2023-08-06T10:21:08;100785.59;;;10.85;57.74
36898;BME280;22827;53.108;-6.738;2023-08-06T10:23:36;100784.26;;;11.98;56.53
36898;BME280;22827;53.108;-6.738;2023-08-06T10:26:03;100780.33;;;12.35;55.53
36898;BME280;22827;53.108;-6.738;2023-08-06T10:28:35;100777.67;;;11.74;56.37
36898;BME280;22827;53.108;-6.738;2023-08-06T10:31:03;100776.82;;;11.83;56.01
36898;BME280;22827;53.108;-6.738;2023-08-06T10:33:41;100771.03;;;11.87;55.11
36898;BME280;22827;53.108;-6.738;2023-08-06T10:36:09;100768.61;;;11.85;55.66
36898;BME280;22827;53.108;-6.738;2023-08-06T10:38:44;100773.56;;;12.77;53.92
36898;BME280;22827;53.108;-6.738;2023-08-06T10:41:16;100777.07;;;12.66;53.88
36898;BME280;22827;53.108;-6.738;2023-08-06T10:43:43;100777.74;;;11.65;53.67
36898;BME280;22827;53.108;-6.738;2023-08-06T10:46:22;100770.82;;;12.68;53.80
36898;BME280;22827;53.108;-6.738;2023-08-06T10:48:50;100770.32;;;12.27;53.80
36898;BME280;22827;53.108;-6.738;2023-08-06T10:51:18;100764.93;;;13.04;53.04
36898;BME280;22827;53.108;-6.738;2023-08-06T10:53:46;100768.72;;;11.69;55.11
36898;BME280;22827;53.108;-6.738;2023-08-06T10:56:13;100780.75;;;11.69;56.65
36898;BME280;22827;53.108;-6.738;2023-08-06T10:58:41;100778.21;;;11.95;56.24
36898;BME280;22827;53.108;-6.738;2023-08-06T11:01:08;100777.80;;;12.15;55.60
36898;BME280;22827;53.108;-6.738;2023-08-06T11:03:37;100772.99;;;12.01;54.08
36898;BME280;22827;53.108;-6.738;2023-08-06T11:06:17;100762.86;;;12.85;54.37
36898;BME280;22827;53.108;-6.738;2023-08-06T11:08:48;100759.19;;;12.41;52.07
36898;BME280;22827;53.108;-6.738;2023-08-06T11:11:16;100763.35;;;12.57;50.54
36898;BME280;22827;53.108;-6.738;2023-08-06T11:13:45;100763.61;;;12.21;50.76
36898;BME280;22827;53.108;-6.738;2023-08-06T11:16:13;100771.10;;;13.55;51.47
36898;BME280;22827;53.108;-6.738;2023-08-06T11:18:41;100763.80;;;13.67;49.16
36898;BME280;22827;53.108;-6.738;2023-08-06T11:21:09;100761.36;;;13.31;49.30
36898;BME280;22827;53.108;-6.738;2023-08-06T11:23:36;100747.05;;;12.61;50.44
36898;BME280;22827;53.108;-6.738;2023-08-06T11:26:03;100761.50;;;11.99;51.04
36898;BME280;22827;53.108;-6.738;2023-08-06T11:28:30;100766.53;;;11.73;53.66
36898;BME280;22827;53.108;-6.738;2023-08-06T11:30:59;100768.42;;;12.30;55.27
36898;BME280;22827;53.108;-6.738;2023-08-06T11:33:27;100764.16;;;12.24;54.34
36898;BME280;22827;53.108;-6.738;2023-08-06T11:35:56;100766.93;;;11.81;54.87
36898;BME280;22827;53.108;-6.738;2023-08-06T11:38:25;100762.64;;;11.49;54.85
36898;BME280;22827;53.108;-6.738;2023-08-06T11:40:52;100756.24;;;11.95;54.64
36898;BME280;22827;53.108;-6.738;2023-08-06T11:43:21;100753.76;;;12.65;54.18
36898;BME280;22827;53.108;-6.738;2023-08-06T11:45:48;100754.31;;;12.54;53.91
36898;BME280;22827;53.108;-6.738;2023-08-06T11:48:16;100755.52;;;12.99;54.44
36898;BME280;22827;53.108;-6.738;2023-08-06T11:50:44;100756.68;;;12.22;55.00
36898;BME280;22827;53.108;-6.738;2023-08-06T11:53:13;100749.03;;;12.62;54.70
36898;BME280;22827;53.108;-6.738;2023-08-06T11:55:41;100753.12;;;12.13;56.74
36898;BME280;22827;53.108;-6.738;2023-08-06T11:58:09;100761.07;;;11.25;59.75
36898;BME280;22827;53.108;-6.738;2023-08-06T12:00:37;100771.76;;;11.07;60.33
36898;BME280;22827;53.108;-6.738;2023-08-06T12:03:05;100767.07;;;11.31;60.84
36898;BME280;22827;53.108;-6.738;2023-08-06T12:05:32;100770.32;;;11.23;59.55
36898;BME280;22827;53.108;-6.738;2023-08-06T12:08:01;100766.27;;;11.42;55.65
36898;BME280;22827;53.108;-6.738;2023-08-06T12:10:29;100767.22;;;11.88;56.20
36898;BME280;22827;53.108;-6.738;2023-08-06T12:12:57;100769.68;;;12.28;55.92
36898;BME280;22827;53.108;-6.738;2023-08-06T12:15:24;100765.04;;;12.37;56.32
36898;BME280;22827;53.108;-6.738;2023-08-06T12:17:51;100763.29;;;13.27;53.36
36898;BME280;22827;53.108;-6.738;2023-08-06T12:20:19;100755.59;;;12.52;54.39
36898;BME280;22827;53.108;-6.738;2023-08-06T12:22:46;100755.68;;;12.28;54.58
36898;BME280;22827;53.108;-6.738;2023-08-06T12:25:13;100754.44;;;13.22;51.41
36898;BME280;22827;53.108;-6.738;2023-08-06T12:27:42;100751.40;;;12.60;51.60
36898;BME280;22827;53.108;-6.738;2023-08-06T12:30:11;100749.24;;;14.08;50.17
36898;BME280;22827;53.108;-6.738;2023-08-06T12:32:38;100740.05;;;14.62;48.76
36898;BME280;22827;53.108;-6.738;2023-08-06T12:35:07;100744.98;;;13.80;46.61
36898;BME280;22827;53.108;-6.738;2023-08-06T12:37:35;100744.06;;;12.90;47.56
36898;BME280;22827;53.108;-6.738;2023-08-06T12:40:03;100749.26;;;13.53;50.35
36898;BME280;22827;53.108;-6.738;2023-08-06T12:42:29;100744.61;;;12.63;46.69
36898;BME280;22827;53.108;-6.738;2023-08-06T12:44:56;100749.84;;;12.96;51.02